createdAt,value
2023-02-28T00:00:28.107Z,2.80
2023-02-28T00:02:55.007Z,3.03
2023-02-28T00:05:23.954Z,2.72
2023-02-28T00:07:51.737Z,3.10
2023-02-28T00:10:21.951Z,3.13
2023-02-28T00:12:50.160Z,2.47
2023-02-28T00:15:17.811Z,2.85
2023-02-28T00:17:45.119Z,2.65
2023-02-28T00:20:13.946Z,2.95
2023-02-28T00:22:43.365Z,3.10
2023-02-28T00:25:12.296Z,2.70
2023-02-28T00:27:40.309Z,2.53
2023-02-28T00:30:10.446Z,2.67
2023-02-28T00:32:38.189Z,2.80
2023-02-28T00:35:05.804Z,2.83
2023-02-28T00:37:33.000Z,2.70
2023-02-28T00:39:59.773Z,2.83
2023-02-28T00:42:28.596Z,2.80
2023-02-28T00:44:55.437Z,3.10
2023-02-28T00:47:22.444Z,2.70
2023-02-28T00:49:49.368Z,2.92
2023-02-28T00:52:16.161Z,3.35
2023-02-28T00:54:42.945Z,3.40
2023-02-28T00:57:09.786Z,2.90
2023-02-28T00:59:36.765Z,2.80
2023-02-28T01:02:03.908Z,2.58
2023-02-28T01:04:31.385Z,2.80
2023-02-28T01:07:01.878Z,3.40
2023-02-28T01:09:29.318Z,3.00
2023-02-28T01:11:56.266Z,2.95
2023-02-28T01:14:23.464Z,3.15
2023-02-28T01:16:50.964Z,3.03
2023-02-28T01:19:17.815Z,2.83
2023-02-28T01:21:44.603Z,3.30
2023-02-28T01:24:13.324Z,2.88
2023-02-28T01:26:40.117Z,2.40
2023-02-28T01:29:08.288Z,3.08
2023-02-28T01:31:35.630Z,3.05
2023-02-28T01:34:03.176Z,3.00
2023-02-28T01:36:30.254Z,3.67
2023-02-28T01:38:57.317Z,4.10
2023-02-28T01:41:27.652Z,3.05
2023-02-28T01:44:00.634Z,2.75
2023-02-28T01:46:27.468Z,3.53
2023-02-28T01:49:01.534Z,3.60
2023-02-28T01:51:35.502Z,2.72
2023-02-28T01:54:14.764Z,3.20
2023-02-28T01:56:47.824Z,3.20
2023-02-28T01:59:23.057Z,3.80
2023-02-28T02:01:50.963Z,4.43
2023-02-28T02:04:21.801Z,3.50
2023-02-28T02:06:49.361Z,3.65
2023-02-28T02:09:16.284Z,3.00
2023-02-28T02:11:45.453Z,2.97
2023-02-28T02:14:38.723Z,3.22
2023-02-28T02:17:20.021Z,3.10
2023-02-28T02:20:04.498Z,3.58
2023-02-28T02:23:15.483Z,3.40
2023-02-28T02:26:10.710Z,3.22
2023-02-28T02:31:19.545Z,4.15
2023-02-28T02:34:21.969Z,3.22
2023-02-28T02:37:00.120Z,3.25
2023-02-28T02:39:46.801Z,3.25
2023-02-28T02:42:29.713Z,4.68
2023-02-28T02:45:07.533Z,3.67
2023-02-28T02:47:36.170Z,3.17
2023-02-28T02:50:08.795Z,2.30
2023-02-28T02:52:39.830Z,2.92
2023-02-28T02:55:09.511Z,2.80
2023-02-28T02:57:53.904Z,2.55
2023-02-28T03:00:26.348Z,2.53
2023-02-28T03:02:55.982Z,2.60
2023-02-28T03:05:28.061Z,5.45
2023-02-28T03:07:55.692Z,3.00
2023-02-28T03:10:34.584Z,2.95
2023-02-28T03:13:21.110Z,2.97
2023-02-28T03:16:14.592Z,3.25
2023-02-28T03:19:03.350Z,3.28
2023-02-28T03:21:59.905Z,2.85
2023-02-28T03:24:55.426Z,3.42
2023-02-28T03:27:53.383Z,4.05
2023-02-28T03:30:34.492Z,5.28
2023-02-28T03:33:11.342Z,3.15
2023-02-28T03:35:51.070Z,5.15
2023-02-28T03:38:30.867Z,8.63
2023-02-28T03:41:08.147Z,3.88
2023-02-28T03:43:39.474Z,4.35
2023-02-28T03:46:11.465Z,3.97
2023-02-28T03:48:50.163Z,5.68
2023-02-28T03:51:23.480Z,4.35
2023-02-28T03:53:58.587Z,7.25
2023-02-28T03:56:42.039Z,5.85
2023-02-28T03:59:16.322Z,8.23
2023-02-28T04:01:46.364Z,6.15
2023-02-28T04:04:14.333Z,7.05
2023-02-28T04:06:41.752Z,5.70
2023-02-28T04:11:53.140Z,3.20
2023-02-28T04:14:20.005Z,3.67
2023-02-28T04:16:46.887Z,3.42
2023-02-28T04:19:14.803Z,4.07
2023-02-28T04:21:50.541Z,3.67
2023-02-28T04:24:20.723Z,3.83
2023-02-28T04:26:49.814Z,3.60
2023-02-28T04:29:26.070Z,3.67
2023-02-28T04:31:56.322Z,3.38
2023-02-28T04:34:23.279Z,3.53
2023-02-28T04:37:06.114Z,3.80
2023-02-28T04:39:38.071Z,3.88
2023-02-28T04:42:05.359Z,4.03
2023-02-28T04:44:32.715Z,3.63
2023-02-28T04:46:59.599Z,3.90
2023-02-28T04:49:26.602Z,4.38
2023-02-28T04:51:54.057Z,4.93
2023-02-28T04:54:27.517Z,4.10
2023-02-28T04:56:56.161Z,4.82
2023-02-28T04:59:23.212Z,3.90
2023-02-28T05:01:50.980Z,5.22
2023-02-28T05:04:18.359Z,3.75
2023-02-28T05:06:45.632Z,3.97
2023-02-28T05:09:15.018Z,4.18
2023-02-28T05:11:42.532Z,4.13
2023-02-28T05:14:15.215Z,4.20
2023-02-28T05:16:42.254Z,2.37
2023-02-28T05:19:09.059Z,3.63
2023-02-28T05:21:41.393Z,4.75
2023-02-28T05:24:13.044Z,4.53
2023-02-28T05:26:42.948Z,3.53
2023-02-28T05:29:10.458Z,4.13
2023-02-28T05:31:38.030Z,4.15
2023-02-28T05:34:05.411Z,4.32
2023-02-28T05:36:32.635Z,4.38
2023-02-28T05:38:59.514Z,4.47
2023-02-28T05:41:27.798Z,4.68
2023-02-28T05:43:54.966Z,5.22
2023-02-28T05:46:21.946Z,4.32
2023-02-28T05:48:49.859Z,5.03
2023-02-28T05:51:17.373Z,5.10
2023-02-28T05:53:44.234Z,4.25
2023-02-28T05:56:11.217Z,6.03
2023-02-28T05:58:38.062Z,5.82
2023-02-28T06:01:24.247Z,5.22
2023-02-28T06:03:51.789Z,5.28
2023-02-28T06:06:18.702Z,5.15
2023-02-28T06:08:46.774Z,6.63
2023-02-28T06:11:13.637Z,6.75
2023-02-28T06:13:40.472Z,8.40
2023-02-28T06:16:08.574Z,5.65
2023-02-28T06:18:35.445Z,5.15
2023-02-28T06:21:02.257Z,4.82
2023-02-28T06:23:29.413Z,5.43
2023-02-28T06:25:59.351Z,5.72
2023-02-28T06:28:26.685Z,5.70
2023-02-28T06:30:54.151Z,5.13
2023-02-28T06:33:21.084Z,4.93
2023-02-28T06:35:51.215Z,3.55
2023-02-28T06:38:19.336Z,5.63
2023-02-28T06:40:53.664Z,5.13
2023-02-28T06:43:20.412Z,4.28
2023-02-28T06:45:47.241Z,5.30
2023-02-28T06:48:14.114Z,5.82
2023-02-28T06:50:40.894Z,4.78
2023-02-28T06:53:07.764Z,10.45
2023-02-28T06:55:34.631Z,6.07
2023-02-28T06:58:01.566Z,6.25
2023-02-28T07:00:28.414Z,6.88
2023-02-28T07:02:56.224Z,5.88
2023-02-28T07:05:22.988Z,8.75
2023-02-28T07:07:49.860Z,6.63
2023-02-28T07:10:20.173Z,8.23
2023-02-28T07:12:47.148Z,6.20
2023-02-28T07:15:13.968Z,5.63
2023-02-28T07:17:41.316Z,4.75
2023-02-28T07:20:08.754Z,5.63
2023-02-28T07:22:35.804Z,5.78
2023-02-28T07:25:02.640Z,6.15
2023-02-28T07:27:29.435Z,6.88
2023-02-28T07:29:56.774Z,7.20
2023-02-28T07:32:24.427Z,5.32
2023-02-28T07:34:51.351Z,6.32
2023-02-28T07:37:18.295Z,6.30
2023-02-28T07:39:45.142Z,6.68
2023-02-28T07:42:13.283Z,7.28
2023-02-28T07:44:41.727Z,18.67
2023-02-28T07:47:09.486Z,7.28
2023-02-28T07:49:37.672Z,8.18
2023-02-28T07:52:05.676Z,7.57
2023-02-28T07:54:33.081Z,6.72
2023-02-28T07:57:00.646Z,6.32
2023-02-28T07:59:27.393Z,5.88
2023-02-28T08:01:54.266Z,5.85
2023-02-28T08:04:21.249Z,5.50
2023-02-28T08:06:48.646Z,5.20
2023-02-28T08:09:15.890Z,6.30
2023-02-28T08:11:42.698Z,5.30
2023-02-28T08:14:09.863Z,5.82
2023-02-28T08:16:36.764Z,6.97
2023-02-28T08:19:04.098Z,7.22
2023-02-28T08:21:31.424Z,6.07
2023-02-28T08:23:58.307Z,7.93
2023-02-28T08:26:25.133Z,5.10
2023-02-28T08:28:51.980Z,6.28
2023-02-28T08:31:21.573Z,6.68
2023-02-28T08:33:51.033Z,4.63
2023-02-28T08:36:18.016Z,4.40
2023-02-28T08:38:44.851Z,5.38
2023-02-28T08:41:13.665Z,4.28
2023-02-28T08:43:41.608Z,4.50
2023-02-28T08:46:09.081Z,6.72
2023-02-28T08:48:38.954Z,4.90
2023-02-28T08:51:12.051Z,5.90
2023-02-28T08:53:40.456Z,8.57
2023-02-28T08:56:10.457Z,5.50
2023-02-28T08:58:37.885Z,12.63
2023-02-28T09:01:16.540Z,7.63
2023-02-28T09:03:44.455Z,13.30
2023-02-28T09:06:12.689Z,7.22
2023-02-28T09:08:40.436Z,11.25
2023-02-28T09:11:07.601Z,7.65
2023-02-28T09:13:34.620Z,4.35
2023-02-28T09:16:03.655Z,3.08
2023-02-28T09:18:31.029Z,3.40
2023-02-28T09:20:58.889Z,3.40
2023-02-28T09:23:26.129Z,3.80
2023-02-28T09:25:55.452Z,3.53
2023-02-28T09:28:22.926Z,2.60
2023-02-28T09:30:52.419Z,3.08
2023-02-28T09:33:22.175Z,2.13
2023-02-28T09:35:58.377Z,2.45
2023-02-28T09:38:25.380Z,3.30
2023-02-28T09:40:56.644Z,2.97
2023-02-28T09:43:26.384Z,3.45
2023-02-28T09:46:01.860Z,2.85
2023-02-28T09:48:38.532Z,3.30
2023-02-28T09:51:29.512Z,2.72
2023-02-28T09:54:01.692Z,3.55
2023-02-28T09:56:37.174Z,4.82
2023-02-28T09:59:11.059Z,6.07
2023-02-28T10:02:16.763Z,5.18
2023-02-28T10:04:53.764Z,5.07
2023-02-28T10:07:42.466Z,3.40
2023-02-28T10:10:23.243Z,3.80
2023-02-28T10:12:54.744Z,2.90
2023-02-28T10:15:27.951Z,3.50
2023-02-28T10:18:08.543Z,3.25
2023-02-28T10:20:39.892Z,3.70
2023-02-28T10:23:15.553Z,3.45
2023-02-28T10:25:49.203Z,3.22
2023-02-28T10:28:18.990Z,3.10
2023-02-28T10:30:51.715Z,3.50
2023-02-28T10:33:21.675Z,3.10
2023-02-28T10:35:48.786Z,2.67
2023-02-28T10:38:25.199Z,3.58
2023-02-28T10:40:52.235Z,4.15
2023-02-28T10:43:21.286Z,3.25
2023-02-28T10:46:00.801Z,3.70
2023-02-28T10:49:07.506Z,3.97
2023-02-28T10:51:40.312Z,3.47
2023-02-28T10:54:20.378Z,2.72
2023-02-28T10:57:08.017Z,3.80
2023-02-28T10:59:35.457Z,3.72
2023-02-28T11:02:02.411Z,3.30
2023-02-28T11:04:33.779Z,3.42
2023-02-28T11:07:23.006Z,3.83
2023-02-28T11:09:53.720Z,4.82
2023-02-28T11:12:27.811Z,4.55
2023-02-28T11:14:59.222Z,4.82
2023-02-28T11:17:29.965Z,5.85
2023-02-28T11:20:02.749Z,5.28
2023-02-28T11:22:32.685Z,4.13
2023-02-28T11:25:17.782Z,5.40
2023-02-28T11:27:48.858Z,4.65
2023-02-28T11:30:27.725Z,5.05
2023-02-28T11:32:54.740Z,4.30
2023-02-28T11:35:31.665Z,4.22
2023-02-28T11:37:59.047Z,4.15
2023-02-28T11:40:46.015Z,4.88
2023-02-28T11:43:54.811Z,3.85
2023-02-28T11:46:32.894Z,3.63
2023-02-28T11:49:08.009Z,3.55
2023-02-28T11:51:40.921Z,3.60
2023-02-28T11:54:26.175Z,6.47
2023-02-28T11:57:01.152Z,5.00
2023-02-28T11:59:50.206Z,4.57
2023-02-28T12:02:26.068Z,4.10
2023-02-28T12:04:57.368Z,7.53
2023-02-28T12:07:34.115Z,5.60
2023-02-28T12:10:19.699Z,4.50
2023-02-28T12:13:09.152Z,4.00
2023-02-28T12:15:57.505Z,5.82
2023-02-28T12:18:30.356Z,5.55
2023-02-28T12:21:25.553Z,4.07
2023-02-28T12:24:09.558Z,7.82
2023-02-28T12:29:20.832Z,3.85
2023-02-28T12:32:00.167Z,3.97
2023-02-28T12:34:32.429Z,4.22
2023-02-28T12:37:07.063Z,5.70
2023-02-28T12:39:49.797Z,4.88
2023-02-28T12:42:23.201Z,4.53
2023-02-28T12:45:12.143Z,5.50
2023-02-28T12:47:42.052Z,4.68
2023-02-28T12:50:12.909Z,4.40
2023-02-28T12:52:58.762Z,4.35
2023-02-28T12:55:51.400Z,5.80
2023-02-28T12:58:31.129Z,4.38
2023-02-28T13:01:33.308Z,5.07
2023-02-28T13:04:25.054Z,5.03
2023-02-28T13:07:20.120Z,4.68
2023-02-28T13:09:59.186Z,5.15
2023-02-28T13:12:27.910Z,5.28
2023-02-28T13:15:13.336Z,4.20
2023-02-28T13:17:42.697Z,4.85
2023-02-28T13:20:27.096Z,4.53
2023-02-28T13:22:56.284Z,4.50
2023-02-28T13:25:23.149Z,4.70
2023-02-28T13:27:58.085Z,4.15
2023-02-28T13:30:53.668Z,4.03
2023-02-28T13:33:59.718Z,4.32
2023-02-28T13:36:33.223Z,4.55
2023-02-28T13:41:30.325Z,5.78
2023-02-28T13:44:03.179Z,5.13
2023-02-28T13:46:30.994Z,5.28
2023-02-28T13:49:17.943Z,5.22
2023-02-28T13:51:48.177Z,4.80
2023-02-28T13:54:40.432Z,5.10
2023-02-28T13:57:41.767Z,5.85
2023-02-28T14:00:29.393Z,8.05
2023-02-28T14:03:09.360Z,6.30
2023-02-28T14:05:37.272Z,7.50
2023-02-28T14:08:16.542Z,5.85
2023-02-28T14:11:07.230Z,5.95
2023-02-28T14:13:47.969Z,4.80
2023-02-28T14:16:17.250Z,6.55
2023-02-28T14:18:52.453Z,5.88
2023-02-28T14:21:26.516Z,6.32
2023-02-28T14:24:19.139Z,5.53
2023-02-28T14:27:05.064Z,4.40
2023-02-28T14:30:02.900Z,5.15
2023-02-28T14:32:38.790Z,5.28
2023-02-28T14:35:36.598Z,4.95
2023-02-28T14:38:08.438Z,5.05
2023-02-28T14:40:36.456Z,6.20
2023-02-28T14:43:06.209Z,7.80
2023-02-28T14:45:38.818Z,6.22
2023-02-28T14:48:11.248Z,4.93
2023-02-28T14:50:38.658Z,6.30
2023-02-28T14:53:16.544Z,5.10
2023-02-28T14:55:47.314Z,7.68
2023-02-28T14:58:22.936Z,8.45
2023-02-28T15:00:54.687Z,4.72
2023-02-28T15:03:30.767Z,9.25
2023-02-28T15:06:03.425Z,7.65
2023-02-28T15:08:32.886Z,4.80
2023-02-28T15:11:02.580Z,7.93
2023-02-28T15:13:56.577Z,7.85
2023-02-28T15:16:32.997Z,14.68
2023-02-28T15:19:03.708Z,7.05
2023-02-28T15:21:36.740Z,7.10
2023-02-28T15:24:10.112Z,6.20
2023-02-28T15:26:41.885Z,5.70
2023-02-28T15:29:16.346Z,5.40
2023-02-28T15:31:59.871Z,6.70
2023-02-28T15:34:43.804Z,6.07
2023-02-28T15:37:34.456Z,6.10
2023-02-28T15:40:41.741Z,7.97
2023-02-28T15:43:16.777Z,7.78
2023-02-28T15:45:47.937Z,6.45
2023-02-28T15:48:38.406Z,5.60
2023-02-28T15:51:30.763Z,4.50
2023-02-28T15:54:24.913Z,5.50
2023-02-28T15:56:59.236Z,8.10
2023-02-28T15:59:29.563Z,5.72
2023-02-28T16:02:11.628Z,5.85
2023-02-28T16:04:55.161Z,7.28
2023-02-28T16:07:21.940Z,10.73
2023-02-28T16:09:49.402Z,6.68
2023-02-28T16:12:18.730Z,6.85
2023-02-28T16:14:46.634Z,6.28
2023-02-28T16:17:29.191Z,6.88
2023-02-28T16:19:57.279Z,10.73
2023-02-28T16:22:27.278Z,9.77
2023-02-28T16:24:54.552Z,9.13
2023-02-28T16:27:29.929Z,11.32
2023-02-28T16:29:57.167Z,12.52
2023-02-28T16:32:24.391Z,11.70
2023-02-28T16:34:52.650Z,11.73
2023-02-28T16:37:20.971Z,10.07
2023-02-28T16:39:49.310Z,9.25
2023-02-28T16:42:35.856Z,11.55
2023-02-28T16:45:02.672Z,8.63
2023-02-28T16:47:29.539Z,9.27
2023-02-28T16:49:57.200Z,7.68
2023-02-28T16:52:24.729Z,9.50
2023-02-28T16:54:51.548Z,9.23
2023-02-28T16:57:24.238Z,11.35
2023-02-28T16:59:52.223Z,9.00
2023-02-28T17:02:21.348Z,8.65
2023-02-28T17:04:48.752Z,13.02
2023-02-28T17:07:17.679Z,10.85
2023-02-28T17:09:46.638Z,7.28
2023-02-28T17:12:13.866Z,9.18
2023-02-28T17:14:41.192Z,6.72
2023-02-28T17:17:08.708Z,6.75
2023-02-28T17:19:39.849Z,7.43
2023-02-28T17:22:06.788Z,7.65
2023-02-28T17:24:33.945Z,7.25
2023-02-28T17:27:02.943Z,7.65
2023-02-28T17:29:35.511Z,7.15
2023-02-28T17:32:12.278Z,8.10
2023-02-28T17:34:45.022Z,8.18
2023-02-28T17:37:15.118Z,7.47
2023-02-28T17:39:42.168Z,7.60
2023-02-28T17:42:09.481Z,7.15
2023-02-28T17:44:37.355Z,7.35
2023-02-28T17:47:06.298Z,7.22
2023-02-28T17:49:34.317Z,6.35
2023-02-28T17:52:01.115Z,7.22
2023-02-28T17:54:28.331Z,7.45
2023-02-28T17:56:55.149Z,7.57
2023-02-28T17:59:22.092Z,7.78
2023-02-28T18:01:51.575Z,7.00
2023-02-28T18:04:18.653Z,6.72
2023-02-28T18:06:51.219Z,7.30
2023-02-28T18:09:23.150Z,7.67
2023-02-28T18:11:52.881Z,7.03
2023-02-28T18:14:24.712Z,7.28
2023-02-28T18:16:53.109Z,6.97
2023-02-28T18:19:22.633Z,7.72
2023-02-28T18:21:54.124Z,6.78
2023-02-28T18:24:24.705Z,7.07
2023-02-28T18:26:52.881Z,7.60
2023-02-28T18:29:23.805Z,7.43
2023-02-28T18:31:51.694Z,7.13
2023-02-28T18:34:22.862Z,7.30
2023-02-28T18:36:51.127Z,7.13
2023-02-28T18:39:20.558Z,7.88
2023-02-28T18:41:47.508Z,7.25
2023-02-28T18:44:20.134Z,11.07
2023-02-28T18:46:50.561Z,7.72
2023-02-28T18:49:18.446Z,7.85
2023-02-28T18:51:47.603Z,8.10
2023-02-28T18:54:15.913Z,8.18
2023-02-28T18:56:45.214Z,8.02
2023-02-28T18:59:13.631Z,8.40
2023-02-28T19:01:46.780Z,8.27
2023-02-28T19:04:15.407Z,8.23
2023-02-28T19:06:43.671Z,7.35
2023-02-28T19:09:10.605Z,8.18
2023-02-28T19:11:39.324Z,7.32
2023-02-28T19:14:08.166Z,8.13
2023-02-28T19:16:36.242Z,5.13
2023-02-28T19:19:03.580Z,8.23
2023-02-28T19:21:32.796Z,8.00
2023-02-28T19:24:02.796Z,9.40
2023-02-28T19:26:29.917Z,8.45
2023-02-28T19:28:57.034Z,9.43
2023-02-28T19:31:26.084Z,10.68
2023-02-28T19:33:53.194Z,8.52
2023-02-28T19:36:22.024Z,8.57
2023-02-28T19:38:50.402Z,7.10
2023-02-28T19:41:19.519Z,9.32
2023-02-28T19:43:47.181Z,9.10
2023-02-28T19:46:15.086Z,9.65
2023-02-28T19:48:44.973Z,8.88
2023-02-28T19:51:13.861Z,10.75
2023-02-28T19:53:44.332Z,8.07
2023-02-28T19:56:13.047Z,11.55
2023-02-28T19:58:41.628Z,10.32
2023-02-28T20:01:17.774Z,11.68
2023-02-28T20:03:48.735Z,12.57
2023-02-28T20:06:16.289Z,11.82
2023-02-28T20:08:44.002Z,10.15
2023-02-28T20:11:13.454Z,9.45
2023-02-28T20:13:42.755Z,9.75
2023-02-28T20:16:12.813Z,9.57
2023-02-28T20:18:41.483Z,9.68
2023-02-28T20:21:11.278Z,10.05
2023-02-28T20:23:40.477Z,10.90
2023-02-28T20:26:10.602Z,13.27
2023-02-28T20:28:43.898Z,10.25
2023-02-28T20:31:16.550Z,11.18
2023-02-28T20:33:46.667Z,10.35
2023-02-28T20:36:22.542Z,9.18
2023-02-28T20:38:51.764Z,9.63
2023-02-28T20:41:19.990Z,10.82
2023-02-28T20:43:47.177Z,9.38
2023-02-28T20:46:15.982Z,8.45
2023-02-28T20:48:43.509Z,9.82
2023-02-28T20:51:14.484Z,9.57
2023-02-28T20:53:42.902Z,8.13
2023-02-28T20:56:18.168Z,9.02
2023-02-28T20:58:47.264Z,11.02
2023-02-28T21:01:26.118Z,9.00
2023-02-28T21:04:08.390Z,11.23
2023-02-28T21:06:38.642Z,10.43
2023-02-28T21:09:08.047Z,9.50
2023-02-28T21:11:36.613Z,9.73
2023-02-28T21:14:11.536Z,10.10
2023-02-28T21:16:38.759Z,8.90
2023-02-28T21:19:06.485Z,9.63
2023-02-28T21:21:39.691Z,9.40
2023-02-28T21:24:08.164Z,9.75
2023-02-28T21:26:35.707Z,9.40
2023-02-28T21:29:04.485Z,9.98
2023-02-28T21:31:33.973Z,9.02
2023-02-28T21:34:05.337Z,9.25
2023-02-28T21:36:37.003Z,9.73
2023-02-28T21:39:30.281Z,11.70
2023-02-28T21:42:05.433Z,10.88
2023-02-28T21:44:34.661Z,12.23
2023-02-28T21:47:03.477Z,12.80
2023-02-28T21:49:31.016Z,10.77
2023-02-28T21:51:59.028Z,12.52
2023-02-28T21:54:26.092Z,10.60
2023-02-28T21:56:56.902Z,10.43
2023-02-28T21:59:23.785Z,10.38
2023-02-28T22:01:51.917Z,9.18
2023-02-28T22:04:23.547Z,9.57
2023-02-28T22:06:53.551Z,8.93
2023-02-28T22:09:21.696Z,9.82
2023-02-28T22:11:49.205Z,10.07
2023-02-28T22:14:19.055Z,10.13
2023-02-28T22:16:52.498Z,8.50
2023-02-28T22:19:21.670Z,7.90
2023-02-28T22:21:50.430Z,9.00
2023-02-28T22:24:20.724Z,7.55
2023-02-28T22:26:49.767Z,8.65
2023-02-28T22:29:17.065Z,8.15
2023-02-28T22:31:44.044Z,8.93
2023-02-28T22:34:12.544Z,7.55
2023-02-28T22:36:42.292Z,7.60
2023-02-28T22:39:09.889Z,7.40
2023-02-28T22:41:36.894Z,8.48
2023-02-28T22:44:05.331Z,7.70
2023-02-28T22:46:35.306Z,7.38
2023-02-28T22:49:05.217Z,7.43
2023-02-28T22:51:32.455Z,8.35
2023-02-28T22:53:59.833Z,7.88
2023-02-28T22:56:29.591Z,7.53
2023-02-28T22:58:58.755Z,8.25
2023-02-28T23:01:28.075Z,9.30
2023-02-28T23:03:58.525Z,8.88
2023-02-28T23:06:27.134Z,9.52
2023-02-28T23:08:56.821Z,6.97
2023-02-28T23:11:27.465Z,7.93
2023-02-28T23:13:59.782Z,7.72
2023-02-28T23:16:31.083Z,7.63
2023-02-28T23:19:01.102Z,7.85
2023-02-28T23:21:31.176Z,8.25
2023-02-28T23:23:58.143Z,8.18
2023-02-28T23:26:25.419Z,8.18
2023-02-28T23:28:52.204Z,8.32
2023-02-28T23:31:19.163Z,8.40
2023-02-28T23:33:46.093Z,10.02
2023-02-28T23:36:16.233Z,11.63
2023-02-28T23:38:47.929Z,11.48
2023-02-28T23:41:15.613Z,11.55
2023-02-28T23:43:42.855Z,24.60
2023-02-28T23:46:12.632Z,10.55
2023-02-28T23:48:41.491Z,29.15
2023-02-28T23:51:12.067Z,16.58
2023-02-28T23:53:40.965Z,55.10
2023-02-28T23:56:10.364Z,19.27
2023-02-28T23:58:37.483Z,12.50
